Latest Weather Observations for Edithburgh

IDS60801

Issued at 5:35 am CDT Saturday 22 November 2014 (issued every 30 minutes, with the page automatically refreshed every 10 minutes)

About weather observations | Map of weather stations | Latest weather observations for SA | Other Formats
Station Details ID: 022046 Name: EDITHBURGH Lat: -35.11 Lon: 137.74 Height: 6.0 m
Data from the previous 72 hours. | See also: Recent months at Edithburgh
Date/Time
CDT
Temp
°C
App
Temp
°C
Dew
Point
Rel
Hum
%
Delta-T
°C
Wind Press
QNH
hPa
Press
MSL
hPa
Rain
since 9 am
mm
Dir
 
Spd
km/h
Gust
km/h
Spd
kts
Gust
kts
22/05:30am 21.1 18.8 12.9 59 4.7 N 17 24 9 13 1004.9 1004.9 0.0
22/05:00am 20.3 19.0 14.9 71 3.2 NNE 15 24 8 13 1004.7 1004.7 0.0
22/04:30am 20.6 19.8 15.2 71 3.2 NNE 13 19 7 10 1005.1 1005.1 0.0
22/04:00am 20.4 19.6 15.2 72 3.1 NNE 13 20 7 11 1004.5 1004.5 0.0
22/03:30am 21.0 19.7 14.7 67 3.7 NNE 15 22 8 12 1005.2 1005.2 0.0
22/03:00am 21.0 20.0 14.7 67 3.7 NNE 13 22 7 12 1004.9 1004.9 0.0
22/02:30am 20.8 19.0 14.5 67 3.7 NNE 17 28 9 15 1005.1 1005.1 0.0
22/02:00am 21.0 19.0 14.9 68 3.6 NNE 19 30 10 16 1005.1 1005.1 0.0
22/01:30am 20.7 19.3 15.5 72 3.1 NNE 17 24 9 13 1005.3 1005.3 0.0
22/01:00am 20.0 19.7 15.5 75 2.7 NNE 11 19 6 10 1006.0 1006.0 0.0
22/12:30am 20.3 19.5 14.1 67 3.6 NNE 11 17 6 9 1006.4 1006.4 0.0
22/12:00am 20.2 18.9 13.8 66 3.7 NE 13 19 7 10 1007.0 1007.0 0.0
 
Date/Time
CDT
Temp
°C
App
Temp
°C
Dew
Point
Rel
Hum
%
Delta-T
°C
Wind Press
QNH
hPa
Press
MSL
hPa
Rain
since 9 am
mm
Dir
 
Spd
km/h
Gust
km/h
Spd
kts
Gust
kts
21/11:30pm 19.9 18.3 13.8 68 3.5 NE 15 19 8 10 1007.9 1007.9 0.0
21/11:00pm 19.8 18.1 13.5 67 3.6 NE 15 19 8 10 1008.5 1008.5 0.0
21/10:30pm 19.7 18.3 13.4 67 3.6 ENE 13 17 7 9 1009.0 1009.0 0.0
21/10:00pm 19.9 17.9 12.8 63 4.0 ENE 15 20 8 11 1009.0 1009.0 0.0
21/09:30pm 19.4 17.7 13.6 69 3.3 E 15 20 8 11 1009.1 1009.1 0.0
21/09:00pm 19.5 18.2 13.8 69 3.3 ENE 13 19 7 10 1009.3 1009.3 0.0
21/08:30pm 19.0 18.1 13.6 71 3.1 E 11 15 6 8 1009.5 1009.5 0.0
21/08:00pm 19.1 18.6 13.7 71 3.1 E 9 13 5 7 1009.8 1009.8 0.0
21/07:30pm 19.6 18.9 13.3 67 3.6 E 9 15 5 8 1009.9 1009.9 0.0
21/07:00pm 19.9 18.4 13.0 64 3.9 E 13 17 7 9 1009.8 1009.8 0.0
21/06:30pm 20.0 18.8 12.9 63 4.0 E 11 15 6 8 1010.0 1010.0 0.0
21/06:00pm 19.7 18.0 12.6 63 4.0 ENE 13 19 7 10 1010.0 1010.0 0.0
21/05:30pm 19.7 17.9 13.2 66 3.7 ENE 15 19 8 10 1010.3 1010.3 0.0
21/05:00pm 19.6 17.7 12.9 65 3.8 ENE 15 19 8 10 1010.3 1010.3 0.0
21/04:30pm 19.9 18.3 12.8 63 4.0 E 13 19 7 10 1010.5 1010.5 0.0
21/04:00pm 20.4 18.4 12.6 61 4.4 ENE 15 19 8 10 1010.7 1010.7 0.0
21/03:30pm 20.2 18.5 12.6 61 4.3 ENE 13 19 7 10 1010.9 1010.9 0.0
21/03:00pm 20.6 18.6 12.6 60 4.5 ENE 15 19 8 10 1011.1 1011.1 0.0
21/02:30pm 20.8 17.9 12.3 58 4.8 ENE 19 22 10 12 1011.4 1011.4 0.0
21/02:00pm 20.7 18.1 11.9 57 4.9 ENE 17 20 9 11 1011.8 1011.8 0.0
21/01:30pm 19.8 16.7 11.7 59 4.5 ENE 19 22 10 12 1012.0 1012.0 0.0
21/01:00pm 19.1 15.9 11.4 61 4.2 ENE 19 22 10 12 1012.6 1012.6 0.0
21/12:30pm 19.4 16.0 11.2 59 4.5 ENE 20 24 11 13 1012.9 1012.9 0.0
21/12:00pm 19.2 16.2 10.7 58 4.6 NE 17 22 9 12 1013.1 1013.1 0.0
21/11:30am 19.5 16.8 10.4 55 4.9 E 15 22 8 12 1012.9 1012.9 0.0
21/11:00am 19.4 17.4 10.1 55 5.0 ESE 11 17 6 9 1013.3 1013.3 0.0
21/10:30am 20.9 17.9 7.8 42 6.8 NNW 13 24 7 13 1013.2 1013.2 0.0
21/10:00am 19.9 17.4 8.1 46 6.1 WNW 11 19 6 10 1013.2 1013.2 0.0
21/09:30am 18.8 16.0 8.6 51 5.3 WNW 13 20 7 11 1013.2 1013.2 0.0
21/09:00am 18.2 15.0 8.5 53 5.0 WNW 15 20 8 11 1013.2 1013.2 0.0
21/08:30am 17.4 15.3 8.2 54 4.7 WNW 9 17 5 9 1013.1 1013.1 0.0
21/08:00am 17.0 15.4 7.9 55 4.6 WNW 6 9 3 5 1012.8 1012.8 0.0
21/07:30am 15.4 14.4 8.7 64 3.4 NNW 4 6 2 3 1012.3 1012.3 0.0
21/07:00am 12.2 10.6 8.8 80 1.7 WNW 7 7 4 4 1012.4 1012.4 0.0
21/06:30am 11.8 9.4 8.6 81 1.6 WNW 11 13 6 7 1012.2 1012.2 0.0
21/06:00am 11.1 8.7 8.5 84 1.3 WNW 11 13 6 7 1012.1 1012.1 0.0
21/05:30am 11.2 8.9 7.5 78 1.8 NW 9 11 5 6 1011.6 1011.6 0.0
21/05:00am 13.5 11.2 8.9 74 2.3 WNW 11 15 6 8 1011.7 1011.7 0.0
21/04:30am 14.0 12.2 9.5 74 2.3 W 9 15 5 8 1012.0 1012.0 0.0
21/04:00am 13.8 11.9 9.1 73 2.4 WNW 9 13 5 7 1011.7 1011.7 0.0
21/03:30am 15.3 13.5 9.3 67 3.1 WNW 9 11 5 6 1011.9 1011.9 0.0
21/03:00am 15.0 13.7 9.8 71 2.7 WNW 7 9 4 5 1011.9 1011.9 0.0
21/02:30am 15.1 14.1 9.0 67 3.1 WSW 4 7 2 4 1011.9 1011.9 0.0
21/02:00am 15.4 13.8 8.7 64 3.4 WSW 7 13 4 7 1012.3 1012.3 0.0
21/01:30am 15.1 13.9 9.7 70 2.8 WSW 6 9 3 5 1012.2 1012.2 0.0
21/01:00am 14.5 13.1 9.4 71 2.6 WSW 7 13 4 7 1012.2 1012.2 0.0
21/12:30am 14.4 12.6 9.3 71 2.6 WSW 9 13 5 7 1012.2 1012.2 0.0
21/12:00am 15.1 12.5 9.5 69 2.9 WSW 13 19 7 10 1012.4 1012.4 0.0
 
Date/Time
CDT
Temp
°C
App
Temp
°C
Dew
Point
Rel
Hum
%
Delta-T
°C
Wind Press
QNH
hPa
Press
MSL
hPa
Rain
since 9 am
mm
Dir
 
Spd
km/h
Gust
km/h
Spd
kts
Gust
kts
20/11:30pm 16.0 12.9 10.3 69 3.0 WSW 17 28 9 15 1012.3 1012.3 0.0
20/11:00pm 16.0 14.0 11.6 75 2.4 W 13 19 7 10 1012.1 1012.1 0.0
20/10:30pm 15.5 13.9 11.4 76 2.2 WSW 11 19 6 10 1011.9 1011.9 0.0
20/10:00pm 15.7 13.1 12.0 78 2.0 W 17 22 9 12 1011.8 1011.8 0.0
20/09:30pm 16.2 13.3 12.2 77 2.2 W 19 28 10 15 1011.6 1011.6 0.0
20/09:00pm 16.1 13.3 12.5 79 2.0 W 19 35 10 19 1011.0 1011.0 0.0
20/08:30pm 16.6 13.6 12.6 77 2.2 W 20 30 11 16 1010.6 1010.6 0.0
20/08:00pm 16.8 14.0 13.2 79 2.0 W 20 26 11 14 1010.0 1010.0 0.0
20/07:30pm 17.3 13.9 13.8 80 2.0 W 24 33 13 18 1009.5 1009.5 0.0
20/07:00pm 18.3 14.1 13.6 74 2.7 W 28 33 15 18 1009.0 1009.0 0.0
20/06:30pm 19.4 14.4 13.4 68 3.4 W 32 44 17 24 1008.3 1008.3 0.0
20/06:00pm 19.5 13.2 13.4 68 3.5 W 39 54 21 29 1008.0 1008.0 0.0
20/05:30pm 19.1 13.6 13.5 70 3.2 W 35 46 19 25 1007.7 1007.7 0.0
20/05:00pm 20.1 14.9 13.5 66 3.8 W 33 44 18 24 1007.7 1007.7 0.0
20/04:30pm 21.4 16.6 12.8 58 4.9 WSW 30 41 16 22 1007.5 1007.5 0.0
20/04:00pm 21.1 15.9 12.9 59 4.7 WSW 32 44 17 24 1006.9 1006.9 0.0
20/03:30pm 21.9 17.3 13.4 58 4.9 WSW 30 39 16 21 1006.9 1006.9 0.0
20/03:00pm 22.6 19.1 14.5 60 4.8 W 26 39 14 21 1006.9 1006.9 0.0
20/02:30pm 22.9 19.1 14.8 60 4.8 W 28 39 15 21 1007.1 1007.1 0.0
20/02:00pm 23.4 20.2 16.2 64 4.4 W 28 41 15 22 1007.4 1007.4 0.0
20/01:43pm 23.0 19.3 16.1 65 4.2 W 30 44 16 24 1007.4 1007.4 0.0
20/01:30pm 24.1 19.4 16.8 63 4.5 WNW 37 48 20 26 1007.3 1007.3 0.0
20/01:00pm 23.9 19.1 16.6 63 4.5 WNW 37 48 20 26 1007.2 1007.2 0.0
20/12:30pm 22.5 17.8 17.7 74 3.0 NW 39 52 21 28 1007.6 1007.6 0.0
20/12:00pm 23.7 19.5 16.3 63 4.5 NW 33 44 18 24 1007.7 1007.7 0.0
20/11:30am 24.2 18.7 15.8 59 5.1 WNW 39 52 21 28 1007.4 1007.4 0.0
20/11:00am 24.7 19.4 15.2 55 5.7 NW 37 46 20 25 1007.1 1007.1 0.0
20/10:30am 24.4 19.8 15.1 56 5.6 NNW 33 46 18 25 1007.0 1007.0 0.0
20/10:00am 24.2 19.5 14.8 55 5.6 NNW 33 43 18 23 1007.0 1007.0 0.0
20/09:30am 22.9 19.4 15.4 62 4.5 NNW 28 35 15 19 1007.1 1007.1 0.0
20/09:00am 22.0 18.3 16.0 68 3.6 NNW 30 43 16 23 1007.1 1007.1 0.0
20/08:30am 21.5 18.5 16.9 75 2.8 NW 28 41 15 22 1007.5 1007.5 0.0
20/08:00am 22.6 16.7 15.6 64 4.2 NW 41 57 22 31 1006.8 1006.8 0.0
20/07:30am 24.6 17.9 13.3 49 6.6 WNW 41 61 22 33 1006.5 1006.5 0.0
20/07:19am 24.7 18.6 13.0 48 6.8 WNW 37 56 20 30 1006.3 1006.3 0.0
20/07:00am 24.7 19.8 12.6 47 7.0 WNW 30 39 16 21 1006.1 1006.1 0.0
20/06:30am 23.1 19.3 13.7 55 5.5 WNW 26 35 14 19 1005.5 1005.5 0.0
20/06:00am 23.8 19.4 12.9 50 6.3 W 28 39 15 21 1004.6 1004.6 0.0
20/05:30am 22.5 19.1 13.6 57 5.2 WSW 24 32 13 17 1004.6 1004.6 0.0
20/05:00am 25.7 22.3 11.2 40 8.2 W 20 32 11 17 1003.6 1003.6 0.0
20/04:30am 24.1 21.9 12.2 47 6.8 W 15 24 8 13 1004.2 1004.2 0.0
20/04:00am 24.2 21.6 12.1 46 6.9 W 17 24 9 13 1005.1 1005.1 0.0
20/03:30am 24.9 19.6 9.8 38 8.3 WNW 28 35 15 19 1005.8 1005.8 0.0
20/03:00am 24.5 19.9 9.8 39 8.1 NW 24 32 13 17 1005.7 1005.7 0.0
20/02:30am 24.3 20.4 8.7 37 8.4 WNW 19 24 10 13 1005.5 1005.5 0.0
20/02:00am 23.5 19.6 5.5 31 9.1 NW 15 19 8 10 1005.8 1005.8 0.0
20/01:30am 21.6 19.2 8.8 44 6.8 NW 11 13 6 7 1005.9 1005.9 0.0
20/01:00am 22.0 22.3 16.0 68 3.6 N 9 15 5 8 1005.7 1005.7 0.0
20/12:30am 22.1 22.3 15.8 67 3.8 NNE 9 13 5 7 1005.9 1005.9 0.0
20/12:00am 23.5 23.1 14.2 56 5.5 NNE 9 15 5 8 1006.2 1006.2 0.0
 
Date/Time
CDT
Temp
°C
App
Temp
°C
Dew
Point
Rel
Hum
%
Delta-T
°C
Wind Press
QNH
hPa
Press
MSL
hPa
Rain
since 9 am
mm
Dir
 
Spd
km/h
Gust
km/h
Spd
kts
Gust
kts
19/11:30pm 24.9 22.8 11.0 41 7.8 N 13 20 7 11 1006.5 1006.5 0.0
19/11:00pm 24.9 22.6 10.3 39 8.1 N 13 19 7 10 1006.8 1006.8 0.0
19/10:30pm 24.6 22.3 10.6 41 7.8 NNE 13 19 7 10 1007.0 1007.0 0.0
19/10:00pm 23.6 21.9 11.3 46 6.9 N 11 19 6 10 1007.1 1007.1 0.0
19/09:30pm 22.5 22.1 13.1 55 5.4 NNE 7 9 4 5 1006.9 1006.9 0.0
19/09:00pm 22.4 21.8 13.6 57 5.1 NNE 9 13 5 7 1006.8 1006.8 0.0
19/08:30pm 22.2 21.5 14.2 60 4.7 NNE 11 17 6 9 1006.7 1006.7 0.0
19/08:00pm 22.6 20.7 13.0 54 5.5 NE 15 22 8 12 1007.0 1007.0 0.0
19/07:30pm 22.5 20.2 13.1 55 5.4 ENE 17 22 9 12 1007.2 1007.2 0.0
19/07:00pm 22.9 20.6 11.9 50 6.2 ENE 15 20 8 11 1007.4 1007.4 0.0
19/06:30pm 22.0 20.5 14.1 61 4.6 ENE 15 20 8 11 1008.0 1008.0 0.0
19/06:00pm 23.2 21.7 13.2 53 5.8 E 13 17 7 9 1008.4 1008.4 0.0
19/05:30pm 24.0 21.8 10.9 43 7.3 E 13 19 7 10 1008.8 1008.8 0.0
19/05:00pm 23.6 22.8 12.8 50 6.2 E 9 13 5 7 1009.6 1009.6 0.0
19/04:30pm 23.0 22.3 13.3 54 5.6 ESE 9 15 5 8 1010.0 1010.0 0.0
19/04:00pm 24.7 22.5 9.3 37 8.4 E 11 20 6 11 1010.7 1010.7 0.0
19/03:30pm 25.2 23.0 9.2 36 8.7 ENE 11 15 6 8 1011.0 1011.0 0.0
19/03:00pm 23.6 21.9 12.6 50 6.3 NE 13 15 7 8 1011.5 1011.5 0.0
19/02:30pm 24.1 22.3 12.0 46 6.9 NE 13 19 7 10 1011.9 1011.9 0.0
19/02:00pm 22.8 20.7 12.4 52 5.9 NE 15 20 8 11 1012.3 1012.3 0.0
19/01:30pm 22.9 20.3 12.1 50 6.1 NE 17 20 9 11 1012.8 1012.8 0.0
19/01:00pm 21.9 19.8 12.4 54 5.4 NE 15 20 8 11 1013.4 1013.4 0.0
19/12:30pm 22.4 20.4 12.8 54 5.5 NE 15 22 8 12 1013.8 1013.8 0.0
19/12:00pm 21.2 18.4 12.7 58 4.8 NE 19 26 10 14 1014.0 1014.0 0.0
19/11:30am 21.0 18.1 12.3 57 4.9 NE 19 24 10 13 1014.6 1014.6 0.0
19/11:00am 21.0 18.4 12.1 56 5.0 NE 17 22 9 12 1014.8 1014.8 0.0
19/10:30am 20.7 18.1 12.1 58 4.8 NE 17 24 9 13 1015.0 1015.0 0.0
19/10:00am 20.4 18.6 12.2 59 4.6 NNE 13 19 7 10 1015.4 1015.4 0.0
19/09:30am 19.7 16.8 11.1 57 4.7 NE 17 24 9 13 1015.5 1015.5 0.0
19/09:00am 19.5 16.9 10.6 56 4.8 NE 15 20 8 11 1016.1 1016.1 0.0
19/08:30am 18.4 15.6 11.2 63 3.9 NE 17 22 9 12 1016.2 1016.2 0.0
19/08:00am 18.5 15.3 11.1 62 4.0 NE 19 26 10 14 1016.4 1016.4 0.0
19/07:30am 17.7 14.4 11.0 65 3.6 NE 19 26 10 14 1016.2 1016.2 0.0
19/07:00am 14.9 14.1 11.7 81 1.7 NNW 7 13 4 7 1016.6 1016.6 0.0
19/06:30am 16.6 15.5 13.2 80 1.9 NNE 11 17 6 9 1016.2 1016.2 0.0
19/06:00am 16.2 15.0 12.8 80 1.9 NNE 11 17 6 9 1016.6 1016.6 0.0

Other Formats:

Comma delimited format used in spreadsheet applications
http://www.bom.gov.au/fwo/IDS60801/IDS60801.94809.axf

JavaScript Object Notation format (JSON) in row-major order
http://www.bom.gov.au/fwo/IDS60801/IDS60801.94809.json